createdAt,value
2019-04-10T00:01:06.329Z,4.27
2019-04-10T00:03:37.899Z,3.50
2019-04-10T00:06:04.714Z,3.87
2019-04-10T00:08:34.415Z,5.07
2019-04-10T00:11:03.231Z,4.10
2019-04-10T00:13:31.710Z,3.90
2019-04-10T00:16:00.130Z,3.50
2019-04-10T00:18:29.653Z,3.73
2019-04-10T00:20:58.637Z,5.20
2019-04-10T00:23:27.252Z,3.80
2019-04-10T00:25:55.670Z,3.30
2019-04-10T00:28:24.098Z,3.50
2019-04-10T00:30:53.491Z,3.87
2019-04-10T00:33:22.860Z,3.50
2019-04-10T00:35:51.969Z,3.40
2019-04-10T00:38:20.524Z,3.53
2019-04-10T00:40:49.874Z,3.77
2019-04-10T00:43:19.030Z,4.07
2019-04-10T00:45:47.540Z,3.87
2019-04-10T00:48:15.968Z,4.03
2019-04-10T00:50:44.636Z,3.30
2019-04-10T00:53:13.181Z,3.23
2019-04-10T00:55:41.597Z,3.20
2019-04-10T00:58:10.068Z,4.50
2019-04-10T01:00:39.239Z,3.63
2019-04-10T01:03:07.799Z,3.90
2019-04-10T01:05:36.218Z,2.93
2019-04-10T01:08:04.646Z,3.20
2019-04-10T01:10:33.053Z,3.10
2019-04-10T01:13:02.678Z,3.03
2019-04-10T01:15:31.177Z,3.20
2019-04-10T01:17:59.610Z,4.10
2019-04-10T01:20:29.248Z,3.80
2019-04-10T01:22:57.816Z,3.53
2019-04-10T01:25:26.252Z,4.63
2019-04-10T01:27:54.720Z,3.27
2019-04-10T01:30:24.286Z,4.23
2019-04-10T01:32:52.845Z,4.37
2019-04-10T01:35:22.354Z,3.77
2019-04-10T01:37:56.118Z,4.47
2019-04-10T01:40:21.746Z,3.67
2019-04-10T01:43:02.458Z,3.83
2019-04-10T01:45:20.351Z,3.17
2019-04-10T01:47:48.757Z,3.83
2019-04-10T01:50:18.013Z,3.47
2019-04-10T01:52:47.135Z,3.20
2019-04-10T01:55:23.115Z,3.70
2019-04-10T01:57:46.317Z,4.33
2019-04-10T02:00:16.526Z,3.77
2019-04-10T02:02:47.561Z,4.10
2019-04-10T02:05:16.570Z,4.00
2019-04-10T02:07:57.824Z,3.80
2019-04-10T02:10:16.923Z,5.63
2019-04-10T02:12:46.995Z,4.10
2019-04-10T02:15:15.941Z,4.07
2019-04-10T02:17:44.534Z,4.30
2019-04-10T02:20:13.267Z,3.70
2019-04-10T02:22:41.680Z,4.50
2019-04-10T02:25:11.590Z,3.10
2019-04-10T02:27:40.571Z,3.53
2019-04-10T02:30:12.059Z,3.23
2019-04-10T02:32:43.336Z,4.13
2019-04-10T02:35:13.099Z,3.30
2019-04-10T02:37:41.671Z,4.30
2019-04-10T02:40:10.954Z,4.10
2019-04-10T02:42:41.097Z,3.70
2019-04-10T02:45:10.269Z,4.20
2019-04-10T02:47:39.088Z,4.60
2019-04-10T02:50:09.835Z,4.53
2019-04-10T02:52:38.953Z,4.90
2019-04-10T02:55:09.887Z,4.53
2019-04-10T02:57:39.061Z,4.33
2019-04-10T03:00:10.691Z,4.80
2019-04-10T03:02:41.679Z,4.13
2019-04-10T03:05:09.852Z,4.70
2019-04-10T03:07:40.125Z,4.70
2019-04-10T03:10:17.612Z,3.73
2019-04-10T03:12:40.853Z,5.00
2019-04-10T03:15:10.498Z,4.00
2019-04-10T03:17:40.093Z,4.10
2019-04-10T03:20:09.897Z,3.80
2019-04-10T03:22:38.453Z,4.27
2019-04-10T03:25:07.322Z,3.97
2019-04-10T03:27:36.515Z,4.27
2019-04-10T03:30:12.107Z,4.43
2019-04-10T03:32:48.077Z,4.43
2019-04-10T03:35:24.829Z,3.60
2019-04-10T03:37:53.522Z,4.27
2019-04-10T03:40:22.031Z,4.43
2019-04-10T03:42:50.446Z,4.90
2019-04-10T03:45:18.848Z,4.40
2019-04-10T03:47:47.443Z,3.93
2019-04-10T03:50:16.298Z,5.70
2019-04-10T03:52:45.372Z,4.53
2019-04-10T03:55:13.834Z,3.97
2019-04-10T03:57:42.809Z,4.50
2019-04-10T04:00:12.134Z,4.20
2019-04-10T04:02:40.593Z,3.70
2019-04-10T04:05:09.166Z,4.00
2019-04-10T04:07:38.777Z,4.00
2019-04-10T04:10:09.335Z,5.37
2019-04-10T04:12:39.062Z,4.07
2019-04-10T04:15:07.735Z,3.53
2019-04-10T04:17:36.181Z,4.10
2019-04-10T04:20:05.122Z,4.60
2019-04-10T04:22:33.743Z,4.70
2019-04-10T04:25:02.157Z,4.10
2019-04-10T04:27:30.564Z,4.57
2019-04-10T04:29:59.655Z,4.07
2019-04-10T04:32:29.291Z,3.27
2019-04-10T04:34:57.991Z,4.10
2019-04-10T04:37:26.407Z,4.33
2019-04-10T04:39:54.826Z,4.83
2019-04-10T04:42:24.410Z,4.20
2019-04-10T04:44:54.160Z,3.80
2019-04-10T04:47:22.744Z,5.13
2019-04-10T04:49:52.294Z,4.00
2019-04-10T04:52:20.759Z,3.50
2019-04-10T04:54:49.838Z,3.13
2019-04-10T04:57:18.390Z,4.80
2019-04-10T04:59:46.808Z,3.30
2019-04-10T05:02:15.222Z,3.87
2019-04-10T05:04:43.854Z,4.30
2019-04-10T05:07:13.443Z,3.93
2019-04-10T05:09:42.304Z,3.67
2019-04-10T05:12:11.339Z,3.93
2019-04-10T05:14:40.025Z,4.10
2019-04-10T05:17:08.469Z,3.83
2019-04-10T05:19:36.870Z,3.87
2019-04-10T05:22:06.012Z,2.97
2019-04-10T05:24:34.513Z,3.20
2019-04-10T05:27:03.041Z,3.77
2019-04-10T05:29:31.463Z,3.33
2019-04-10T05:32:00.860Z,3.47
2019-04-10T05:34:29.605Z,3.60
2019-04-10T05:36:58.961Z,3.83
2019-04-10T05:39:39.205Z,3.70
2019-04-10T05:41:57.534Z,3.43
2019-04-10T05:44:25.957Z,3.70
2019-04-10T05:46:54.880Z,4.17
2019-04-10T05:49:24.579Z,3.60
2019-04-10T05:51:53.492Z,3.67
2019-04-10T05:54:22.548Z,4.00
2019-04-10T05:56:51.176Z,3.90
2019-04-10T05:59:19.647Z,3.47
2019-04-10T06:01:48.554Z,2.90
2019-04-10T06:04:17.135Z,3.00
2019-04-10T06:06:46.517Z,3.57
2019-04-10T06:09:16.254Z,2.87
2019-04-10T06:11:45.766Z,5.73
2019-04-10T06:14:15.730Z,3.43
2019-04-10T06:16:44.747Z,3.10
2019-04-10T06:19:13.202Z,3.97
2019-04-10T06:21:41.885Z,5.57
2019-04-10T06:24:10.361Z,4.40
2019-04-10T06:26:39.496Z,3.23
2019-04-10T06:29:07.968Z,4.50
2019-04-10T06:31:36.809Z,4.40
2019-04-10T06:34:05.385Z,3.60
2019-04-10T06:36:33.788Z,3.40
2019-04-10T06:39:02.716Z,3.43
2019-04-10T06:41:31.226Z,3.87
2019-04-10T06:43:59.641Z,3.80
2019-04-10T06:46:28.518Z,3.13
2019-04-10T06:48:57.012Z,4.20
2019-04-10T06:51:25.404Z,3.00
2019-04-10T06:54:01.792Z,2.70
2019-04-10T06:56:25.014Z,2.73
2019-04-10T06:58:53.451Z,3.10
2019-04-10T07:01:24.301Z,2.70
2019-04-10T07:04:00.918Z,2.50
2019-04-10T07:06:26.592Z,2.63
2019-04-10T07:08:53.298Z,2.80
2019-04-10T07:11:25.219Z,2.27
2019-04-10T07:13:53.867Z,2.87
2019-04-10T07:16:26.309Z,3.40
2019-04-10T07:18:53.517Z,5.60
2019-04-10T07:21:22.274Z,3.60
2019-04-10T07:23:50.784Z,5.80
2019-04-10T07:26:30.626Z,2.57
2019-04-10T07:28:50.366Z,4.53
2019-04-10T07:31:19.382Z,2.97
2019-04-10T07:33:50.371Z,3.17
2019-04-10T07:36:18.189Z,3.07
2019-04-10T07:38:46.928Z,3.60
2019-04-10T07:41:21.008Z,3.10
2019-04-10T07:43:46.522Z,4.23
2019-04-10T07:46:15.289Z,3.87
2019-04-10T07:48:43.701Z,5.63
2019-04-10T07:51:12.135Z,7.03
2019-04-10T07:53:41.473Z,4.77
2019-04-10T07:56:14.879Z,3.77
2019-04-10T07:58:40.094Z,4.27
2019-04-10T08:01:09.862Z,4.40
2019-04-10T08:03:39.505Z,3.63
2019-04-10T08:06:09.026Z,3.73
2019-04-10T08:08:38.322Z,5.80
2019-04-10T08:11:07.168Z,3.77
2019-04-10T08:13:36.450Z,4.17
2019-04-10T08:16:06.229Z,5.17
2019-04-10T08:18:35.163Z,4.47
2019-04-10T08:21:04.766Z,3.20
2019-04-10T08:23:33.834Z,4.33
2019-04-10T08:26:03.523Z,3.70
2019-04-10T08:28:32.783Z,3.50
2019-04-10T08:31:01.292Z,3.80
2019-04-10T08:33:30.181Z,3.93
2019-04-10T08:35:58.998Z,4.27
2019-04-10T08:38:28.055Z,4.07
2019-04-10T08:40:56.661Z,4.37
2019-04-10T08:43:25.142Z,3.80
2019-04-10T08:45:53.991Z,3.60
2019-04-10T08:48:24.132Z,3.80
2019-04-10T08:50:54.577Z,4.87
2019-04-10T08:53:24.192Z,4.83
2019-04-10T08:55:52.809Z,3.53
2019-04-10T08:58:21.226Z,4.50
2019-04-10T09:00:51.907Z,3.83
2019-04-10T09:03:19.854Z,4.87
2019-04-10T09:05:49.084Z,3.80
2019-04-10T09:08:17.578Z,4.87
2019-04-10T09:10:46.909Z,4.50
2019-04-10T09:13:16.664Z,10.07
2019-04-10T09:15:45.838Z,3.93
2019-04-10T09:18:14.699Z,6.50
2019-04-10T09:20:43.167Z,5.30
2019-04-10T09:23:27.823Z,5.17
2019-04-10T09:25:41.744Z,4.10
2019-04-10T09:28:10.549Z,4.67
2019-04-10T09:30:39.056Z,4.63
2019-04-10T09:33:16.962Z,3.83
2019-04-10T09:35:38.471Z,5.63
2019-04-10T09:38:07.027Z,7.10
2019-04-10T09:40:36.312Z,5.13
2019-04-10T09:43:05.076Z,5.50
2019-04-10T09:45:33.668Z,6.30
2019-04-10T09:48:02.208Z,7.10
2019-04-10T09:50:31.122Z,4.47
2019-04-10T09:53:00.001Z,4.97
2019-04-10T09:55:29.768Z,10.07
2019-04-10T09:57:58.476Z,5.17
2019-04-10T10:00:27.905Z,8.73
2019-04-10T10:02:56.680Z,8.37
2019-04-10T10:05:25.131Z,5.90
2019-04-10T10:07:55.729Z,8.37
2019-04-10T10:10:24.672Z,8.07
2019-04-10T10:12:53.124Z,7.10
2019-04-10T10:15:21.622Z,5.37
2019-04-10T10:17:50.054Z,5.10
2019-04-10T10:20:19.585Z,6.63
2019-04-10T10:22:48.168Z,6.53
2019-04-10T10:25:17.415Z,9.20
2019-04-10T10:27:46.837Z,5.30
2019-04-10T10:30:15.997Z,4.40
2019-04-10T10:32:45.451Z,4.17
2019-04-10T10:35:14.688Z,6.27
2019-04-10T10:37:43.253Z,6.03
2019-04-10T10:40:12.504Z,10.17
2019-04-10T10:42:41.560Z,5.17
2019-04-10T10:45:10.702Z,6.60
2019-04-10T10:47:40.164Z,6.03
2019-04-10T10:50:09.787Z,8.40
2019-04-10T10:52:38.274Z,4.73
2019-04-10T10:55:07.689Z,5.03
2019-04-10T10:57:37.377Z,4.93
2019-04-10T11:00:08.351Z,4.77
2019-04-10T11:02:37.984Z,4.27
2019-04-10T11:05:08.730Z,10.53
2019-04-10T11:07:38.677Z,4.13
2019-04-10T11:10:08.479Z,4.37
2019-04-10T11:12:38.403Z,6.37
2019-04-10T11:15:08.039Z,4.37
2019-04-10T11:17:38.169Z,6.43
2019-04-10T11:20:10.080Z,3.97
2019-04-10T11:22:39.828Z,6.00
2019-04-10T11:25:09.617Z,6.27
2019-04-10T11:27:39.199Z,3.30
2019-04-10T11:30:08.870Z,3.90
2019-04-10T11:32:38.748Z,4.30
2019-04-10T11:35:08.256Z,4.40
2019-04-10T11:37:43.424Z,3.77
2019-04-10T11:40:08.740Z,3.80
2019-04-10T11:42:39.736Z,3.33
2019-04-10T11:45:10.553Z,3.70
2019-04-10T11:47:39.658Z,4.03
2019-04-10T11:50:13.389Z,3.47
2019-04-10T11:52:45.255Z,3.27
2019-04-10T11:55:13.823Z,3.70
2019-04-10T11:57:41.694Z,3.30
2019-04-10T12:00:18.843Z,3.07
2019-04-10T12:05:18.592Z,4.07
2019-04-10T12:08:27.926Z,4.23
2019-04-10T12:12:44.121Z,3.33
2019-04-10T12:15:12.612Z,5.07
2019-04-10T12:17:42.949Z,5.20
2019-04-10T12:20:11.355Z,5.03
2019-04-10T12:22:40.694Z,5.23
2019-04-10T12:25:10.203Z,11.37
2019-04-10T12:27:39.045Z,9.47
2019-04-10T12:30:11.569Z,8.30
2019-04-10T12:32:41.007Z,6.40
2019-04-10T12:35:10.863Z,7.97
2019-04-10T12:37:39.353Z,8.20
2019-04-10T12:40:08.213Z,10.63
2019-04-10T12:42:36.671Z,6.93
2019-04-10T12:45:06.678Z,10.03
2019-04-10T12:47:35.126Z,6.53
2019-04-10T12:50:08.066Z,15.33
2019-04-10T12:52:36.708Z,11.10
2019-04-10T12:55:08.654Z,14.43
2019-04-10T12:57:37.439Z,6.87
2019-04-10T13:00:11.843Z,8.50
2019-04-10T13:02:40.755Z,12.40
2019-04-10T13:05:11.303Z,13.60
2019-04-10T13:07:39.994Z,7.70
2019-04-10T13:10:09.072Z,11.03
2019-04-10T13:12:37.678Z,9.17
2019-04-10T13:15:10.941Z,8.33
2019-04-10T13:17:40.696Z,10.63
2019-04-10T13:20:11.509Z,7.10
2019-04-10T13:22:40.218Z,10.23
2019-04-10T13:25:08.886Z,9.33
2019-04-10T13:27:37.375Z,10.20
2019-04-10T13:30:12.566Z,12.93
2019-04-10T13:32:40.382Z,14.97
2019-04-10T13:35:10.340Z,12.40
2019-04-10T13:37:39.041Z,11.57
2019-04-10T13:40:07.816Z,12.93
2019-04-10T13:42:37.178Z,9.40
2019-04-10T13:45:07.959Z,15.20
2019-04-10T13:47:38.670Z,16.70
2019-04-10T13:50:08.641Z,13.43
2019-04-10T13:52:38.844Z,13.80
2019-04-10T13:55:08.857Z,17.10
2019-04-10T13:57:39.046Z,19.50
2019-04-10T14:00:11.302Z,10.83
2019-04-10T14:02:39.823Z,13.07
2019-04-10T14:05:10.228Z,13.50
2019-04-10T14:07:38.633Z,14.40
2019-04-10T14:10:08.278Z,14.13
2019-04-10T14:12:37.203Z,10.73
2019-04-10T14:15:07.674Z,12.37
2019-04-10T14:17:37.499Z,11.20
2019-04-10T14:20:06.998Z,9.00
2019-04-10T14:22:37.906Z,11.33
2019-04-10T14:25:09.628Z,6.20
2019-04-10T14:27:38.597Z,16.10
2019-04-10T14:30:09.840Z,11.10
2019-04-10T14:32:39.632Z,14.73
2019-04-10T14:35:09.963Z,13.53
2019-04-10T14:37:38.605Z,8.40
2019-04-10T14:40:09.089Z,8.50
2019-04-10T14:42:38.351Z,8.53
2019-04-10T14:45:08.995Z,7.53
2019-04-10T14:47:37.667Z,12.10
2019-04-10T14:50:07.398Z,5.67
2019-04-10T14:52:37.137Z,10.17
2019-04-10T14:55:06.187Z,8.53
2019-04-10T14:57:34.943Z,10.50
2019-04-10T15:00:10.666Z,12.90
2019-04-10T15:02:39.766Z,10.27
2019-04-10T15:05:09.972Z,12.73
2019-04-10T15:07:39.390Z,8.03
2019-04-10T15:10:09.290Z,9.93
2019-04-10T15:12:37.713Z,14.50
2019-04-10T15:15:06.471Z,13.20
2019-04-10T15:17:35.028Z,17.20
2019-04-10T15:20:03.537Z,8.50
2019-04-10T15:22:31.936Z,8.07
2019-04-10T15:25:01.420Z,8.30
2019-04-10T15:27:29.970Z,8.70
2019-04-10T15:29:58.415Z,16.50
2019-04-10T15:32:26.895Z,10.70
2019-04-10T15:34:55.793Z,7.73
2019-04-10T15:37:25.543Z,17.10
2019-04-10T15:39:54.170Z,11.47
2019-04-10T15:42:23.779Z,12.23
2019-04-10T15:44:52.442Z,11.60
2019-04-10T15:47:23.104Z,14.60
2019-04-10T15:49:51.609Z,9.03
2019-04-10T15:52:20.227Z,13.80
2019-04-10T15:54:48.697Z,9.73
2019-04-10T15:57:18.607Z,12.00
2019-04-10T15:59:48.220Z,18.20
2019-04-10T16:02:16.906Z,15.17
2019-04-10T16:04:45.380Z,14.43
2019-04-10T16:07:14.638Z,15.10
2019-04-10T16:09:48.604Z,20.67
2019-04-10T16:12:18.628Z,19.93
2019-04-10T16:14:48.651Z,22.80
2019-04-10T16:17:25.787Z,23.07
2019-04-10T16:20:02.096Z,21.07
2019-04-10T16:22:33.368Z,21.63
2019-04-10T16:25:03.674Z,25.57
2019-04-10T16:27:32.740Z,26.63
2019-04-10T16:30:06.066Z,28.93
2019-04-10T16:32:34.910Z,22.13
2019-04-10T16:35:07.282Z,23.27
2019-04-10T16:37:36.226Z,22.67
2019-04-10T16:40:09.825Z,27.30
2019-04-10T16:42:37.484Z,27.47
2019-04-10T16:45:08.103Z,20.93
2019-04-10T16:47:36.652Z,28.87
2019-04-10T16:50:09.168Z,27.30
2019-04-10T16:52:38.891Z,26.20
2019-04-10T16:55:08.376Z,38.60
2019-04-10T16:57:36.902Z,23.97
2019-04-10T17:00:06.909Z,21.93
2019-04-10T17:02:36.044Z,25.07
2019-04-10T17:05:08.089Z,22.40
2019-04-10T17:07:36.709Z,26.60
2019-04-10T17:10:14.015Z,30.17
2019-04-10T17:12:38.119Z,26.40
2019-04-10T17:15:08.190Z,23.37
2019-04-10T17:17:36.756Z,32.13
2019-04-10T17:20:08.438Z,24.33
2019-04-10T17:22:43.534Z,26.53
2019-04-10T17:25:09.333Z,22.87
2019-04-10T17:27:38.087Z,27.37
2019-04-10T17:30:08.066Z,27.57
2019-04-10T17:32:36.495Z,25.33
2019-04-10T17:35:07.828Z,26.13
2019-04-10T17:37:38.094Z,31.63
2019-04-10T17:40:09.171Z,27.50
2019-04-10T17:42:38.142Z,28.70
2019-04-10T17:45:08.458Z,26.90
2019-04-10T17:47:36.902Z,25.50
2019-04-10T17:50:07.804Z,31.50
2019-04-10T17:52:37.964Z,36.17
2019-04-10T17:55:07.724Z,20.50
2019-04-10T17:57:40.165Z,33.63
2019-04-10T18:00:20.794Z,29.00
2019-04-10T18:02:50.748Z,22.63
2019-04-10T18:05:20.343Z,29.63
2019-04-10T18:07:48.934Z,28.30
2019-04-10T18:10:17.454Z,28.53
2019-04-10T18:12:46.085Z,22.20
2019-04-10T18:15:15.740Z,26.80
2019-04-10T18:17:44.279Z,33.43
2019-04-10T18:20:12.786Z,19.07
2019-04-10T18:22:42.750Z,34.03
2019-04-10T18:25:11.889Z,24.17
2019-04-10T18:27:41.386Z,30.13
2019-04-10T18:30:12.034Z,28.10
2019-04-10T18:32:40.499Z,29.83
2019-04-10T18:35:09.183Z,30.47
2019-04-10T18:37:37.676Z,24.93
2019-04-10T18:40:07.520Z,34.83
2019-04-10T18:42:37.343Z,30.27
2019-04-10T18:45:09.862Z,26.47
2019-04-10T18:47:39.318Z,28.00
2019-04-10T18:50:09.865Z,24.73
2019-04-10T18:52:39.311Z,31.37
2019-04-10T18:55:08.158Z,26.87
2019-04-10T18:57:36.822Z,26.23
2019-04-10T19:00:26.126Z,31.40
2019-04-10T19:03:02.003Z,45.43
2019-04-10T19:05:34.545Z,27.93
2019-04-10T19:08:03.192Z,25.23
2019-04-10T19:10:32.613Z,32.30
2019-04-10T19:13:01.451Z,26.23
2019-04-10T19:15:31.077Z,29.27
2019-04-10T19:17:59.686Z,32.07
2019-04-10T19:20:29.642Z,21.70
2019-04-10T19:22:59.100Z,30.67
2019-04-10T19:28:32.022Z,24.77
2019-04-10T19:31:08.652Z,19.13
2019-04-10T19:33:31.076Z,18.73
2019-04-10T19:35:59.729Z,36.27
2019-04-10T19:38:29.363Z,17.63
2019-04-10T19:40:58.511Z,34.40
2019-04-10T19:43:28.726Z,24.00
2019-04-10T19:45:58.424Z,30.17
2019-04-10T19:48:27.666Z,24.90
2019-04-10T19:50:57.355Z,29.13
2019-04-10T19:53:27.056Z,25.53
2019-04-10T19:56:04.395Z,29.53
2019-04-10T19:58:32.949Z,27.67
2019-04-10T20:01:01.392Z,28.03
2019-04-10T20:03:29.978Z,22.73
2019-04-10T20:06:00.305Z,18.03
2019-04-10T20:08:29.008Z,22.03
2019-04-10T20:10:58.232Z,24.40
2019-04-10T20:13:27.235Z,21.90
2019-04-10T20:15:55.749Z,15.00
2019-04-10T20:18:24.579Z,18.57
2019-04-10T20:20:54.067Z,29.97
2019-04-10T20:23:23.572Z,23.40
2019-04-10T20:25:52.200Z,29.40
2019-04-10T20:28:20.659Z,25.43
2019-04-10T20:30:52.215Z,25.63
2019-04-10T20:33:20.796Z,17.87
2019-04-10T20:35:50.759Z,23.70
2019-04-10T20:38:19.837Z,29.73
2019-04-10T20:40:49.762Z,19.70
2019-04-10T20:43:18.765Z,30.30
2019-04-10T20:45:47.600Z,24.00
2019-04-10T20:48:16.271Z,19.17
2019-04-10T20:50:45.103Z,20.53
2019-04-10T20:53:13.729Z,21.43
2019-04-10T20:55:42.269Z,18.47
2019-04-10T20:58:11.281Z,20.13
2019-04-10T21:00:41.196Z,17.33
2019-04-10T21:03:11.435Z,25.97
2019-04-10T21:05:40.183Z,17.67
2019-04-10T21:08:09.484Z,14.57
2019-04-10T21:10:38.688Z,21.20
2019-04-10T21:13:08.469Z,25.47
2019-04-10T21:15:37.628Z,21.00
2019-04-10T21:18:06.875Z,28.50
2019-04-10T21:20:36.522Z,25.40
2019-04-10T21:23:05.564Z,19.00
2019-04-10T21:25:35.081Z,22.23
2019-04-10T21:28:04.736Z,24.47
2019-04-10T21:30:52.912Z,24.13
2019-04-10T21:33:24.679Z,22.70
2019-04-10T21:35:54.139Z,15.87
2019-04-10T21:38:23.583Z,23.03
2019-04-10T21:40:52.183Z,17.13
2019-04-10T21:43:21.470Z,18.83
2019-04-10T21:45:51.766Z,23.37
2019-04-10T21:48:20.478Z,21.30
2019-04-10T21:50:49.663Z,22.70
2019-04-10T21:53:28.647Z,14.70
2019-04-10T21:55:57.794Z,18.57
2019-04-10T21:58:26.246Z,21.50
2019-04-10T22:00:57.098Z,16.03
2019-04-10T22:03:27.426Z,17.07
2019-04-10T22:06:03.737Z,27.67
2019-04-10T22:08:37.167Z,19.30
2019-04-10T22:11:06.390Z,14.63
2019-04-10T22:13:35.806Z,19.97
2019-04-10T22:16:05.914Z,15.97
2019-04-10T22:18:39.497Z,25.73
2019-04-10T22:21:08.249Z,18.70
2019-04-10T22:23:37.693Z,20.63
2019-04-10T22:26:06.375Z,18.53
2019-04-10T22:28:37.160Z,25.03
2019-04-10T22:31:05.851Z,18.07
2019-04-10T22:33:36.415Z,16.03
2019-04-10T22:36:04.933Z,16.50
2019-04-10T22:38:35.633Z,24.70
2019-04-10T22:41:12.343Z,22.20
2019-04-10T22:43:36.456Z,14.83
2019-04-10T22:46:05.290Z,20.63
2019-04-10T22:48:33.787Z,19.60
2019-04-10T22:51:03.456Z,19.90
2019-04-10T22:53:33.115Z,25.37
2019-04-10T22:56:05.341Z,19.07
2019-04-10T22:58:42.579Z,26.27
2019-04-10T23:01:13.541Z,18.00
2019-04-10T23:03:45.221Z,22.20
2019-04-10T23:06:13.790Z,17.53
2019-04-10T23:08:42.318Z,18.00
2019-04-10T23:11:10.742Z,23.53
2019-04-10T23:13:41.125Z,21.10
2019-04-10T23:16:13.048Z,19.67
2019-04-10T23:18:42.103Z,14.77
2019-04-10T23:21:10.538Z,14.50
2019-04-10T23:23:39.075Z,17.20
2019-04-10T23:26:08.913Z,23.13
2019-04-10T23:28:37.807Z,24.70
2019-04-10T23:31:06.348Z,18.63
2019-04-10T23:33:34.782Z,19.43
2019-04-10T23:36:03.239Z,14.87
2019-04-10T23:38:31.951Z,18.47
2019-04-10T23:41:01.172Z,30.33
2019-04-10T23:43:29.802Z,18.27
2019-04-10T23:45:58.219Z,21.10
2019-04-10T23:48:26.874Z,14.37
2019-04-10T23:50:56.557Z,18.47
2019-04-10T23:53:25.270Z,15.97
2019-04-10T23:55:54.623Z,22.30
2019-04-10T23:58:24.220Z,21.97
